sensor_id;sensor_type;location;lat;lon;timestamp;pressure;altitude;pressure_sealevel;temperature;humidity
9717;BME280;4897;43.570;27.832;2022-10-16T00:00:38;99796.09;;;8.47;100.00
9717;BME280;4897;43.570;27.832;2022-10-16T00:03:05;99782.63;;;8.36;100.00
9717;BME280;4897;43.570;27.832;2022-10-16T00:05:33;99815.72;;;8.46;100.00
9717;BME280;4897;43.570;27.832;2022-10-16T00:08:04;99770.03;;;8.26;100.00
9717;BME280;4897;43.570;27.832;2022-10-16T00:10:32;99822.97;;;8.44;100.00
9717;BME280;4897;43.570;27.832;2022-10-16T00:12:59;99814.97;;;8.44;100.00
9717;BME280;4897;43.570;27.832;2022-10-16T00:15:26;99807.69;;;8.20;100.00
9717;BME280;4897;43.570;27.832;2022-10-16T00:17:53;99807.31;;;8.26;100.00
9717;BME280;4897;43.570;27.832;2022-10-16T00:20:20;99747.41;;;7.78;100.00
9717;BME280;4897;43.570;27.832;2022-10-16T00:22:47;99820.91;;;8.21;100.00
9717;BME280;4897;43.570;27.832;2022-10-16T00:25:14;99830.03;;;8.17;100.00
9717;BME280;4897;43.570;27.832;2022-10-16T00:27:42;99782.38;;;7.86;100.00
9717;BME280;4897;43.570;27.832;2022-10-16T00:30:09;99739.41;;;7.64;100.00
9717;BME280;4897;43.570;27.832;2022-10-16T00:32:36;99820.06;;;8.06;100.00
9717;BME280;4897;43.570;27.832;2022-10-16T00:35:04;99827.66;;;8.13;100.00
9717;BME280;4897;43.570;27.832;2022-10-16T00:37:31;99825.88;;;8.13;100.00
9717;BME280;4897;43.570;27.832;2022-10-16T00:39:58;99838.25;;;8.00;100.00
9717;BME280;4897;43.570;27.832;2022-10-16T00:42:25;99800.91;;;7.87;100.00
9717;BME280;4897;43.570;27.832;2022-10-16T00:44:55;99828.47;;;8.00;100.00
9717;BME280;4897;43.570;27.832;2022-10-16T00:47:26;99829.44;;;7.85;100.00
9717;BME280;4897;43.570;27.832;2022-10-16T00:49:59;99826.66;;;7.87;100.00
9717;BME280;4897;43.570;27.832;2022-10-16T00:52:26;99819.44;;;7.75;100.00
9717;BME280;4897;43.570;27.832;2022-10-16T00:54:54;99828.78;;;7.82;100.00
9717;BME280;4897;43.570;27.832;2022-10-16T00:57:22;99828.41;;;7.74;100.00
9717;BME280;4897;43.570;27.832;2022-10-16T00:59:49;99814.91;;;7.63;100.00
9717;BME280;4897;43.570;27.832;2022-10-16T01:02:18;99801.69;;;7.47;100.00
9717;BME280;4897;43.570;27.832;2022-10-16T01:04:48;99824.78;;;7.61;100.00
9717;BME280;4897;43.570;27.832;2022-10-16T01:07:23;99839.69;;;7.49;100.00
9717;BME280;4897;43.570;27.832;2022-10-16T01:10:02;99836.94;;;7.37;100.00
9717;BME280;4897;43.570;27.832;2022-10-16T01:12:39;99843.97;;;7.38;100.00
9717;BME280;4897;43.570;27.832;2022-10-16T01:15:13;99814.38;;;7.14;100.00
9717;BME280;4897;43.570;27.832;2022-10-16T01:17:49;99838.81;;;7.35;100.00
9717;BME280;4897;43.570;27.832;2022-10-16T01:20:26;99855.47;;;7.38;100.00
9717;BME280;4897;43.570;27.832;2022-10-16T01:23:03;99856.53;;;7.50;100.00
9717;BME280;4897;43.570;27.832;2022-10-16T01:25:43;99869.44;;;7.42;100.00
9717;BME280;4897;43.570;27.832;2022-10-16T01:28:19;99861.63;;;7.39;100.00
9717;BME280;4897;43.570;27.832;2022-10-16T01:30:50;99868.28;;;7.32;100.00
9717;BME280;4897;43.570;27.832;2022-10-16T01:33:21;99857.16;;;7.25;100.00
9717;BME280;4897;43.570;27.832;2022-10-16T01:35:53;99873.38;;;7.20;100.00
9717;BME280;4897;43.570;27.832;2022-10-16T01:38:25;99874.66;;;7.29;100.00
9717;BME280;4897;43.570;27.832;2022-10-16T01:40:59;99872.47;;;7.21;100.00
9717;BME280;4897;43.570;27.832;2022-10-16T01:43:33;99876.31;;;7.16;100.00
9717;BME280;4897;43.570;27.832;2022-10-16T01:46:02;99878.41;;;7.11;100.00
9717;BME280;4897;43.570;27.832;2022-10-16T01:48:31;99882.19;;;7.07;100.00
9717;BME280;4897;43.570;27.832;2022-10-16T01:51:02;99851.09;;;6.93;100.00
9717;BME280;4897;43.570;27.832;2022-10-16T01:53:30;99871.13;;;6.99;100.00
9717;BME280;4897;43.570;27.832;2022-10-16T01:55:58;99879.22;;;6.97;100.00
9717;BME280;4897;43.570;27.832;2022-10-16T01:58:29;99881.00;;;6.97;100.00
9717;BME280;4897;43.570;27.832;2022-10-16T02:01:00;99867.25;;;6.90;100.00
9717;BME280;4897;43.570;27.832;2022-10-16T02:03:28;99887.22;;;7.11;100.00
9717;BME280;4897;43.570;27.832;2022-10-16T02:05:56;99859.44;;;6.87;100.00
9717;BME280;4897;43.570;27.832;2022-10-16T02:08:26;99892.50;;;6.97;100.00
9717;BME280;4897;43.570;27.832;2022-10-16T02:10:54;99887.59;;;7.05;100.00
9717;BME280;4897;43.570;27.832;2022-10-16T02:13:26;99902.78;;;7.03;100.00
9717;BME280;4897;43.570;27.832;2022-10-16T02:15:55;99894.03;;;7.01;100.00
9717;BME280;4897;43.570;27.832;2022-10-16T02:18:22;99885.66;;;6.93;100.00
9717;BME280;4897;43.570;27.832;2022-10-16T02:20:55;99898.94;;;6.93;100.00
9717;BME280;4897;43.570;27.832;2022-10-16T02:23:29;99900.22;;;6.86;100.00
9717;BME280;4897;43.570;27.832;2022-10-16T02:25:59;99911.06;;;6.83;100.00
9717;BME280;4897;43.570;27.832;2022-10-16T02:28:34;99909.00;;;6.88;100.00
9717;BME280;4897;43.570;27.832;2022-10-16T02:31:08;99908.91;;;6.90;100.00
9717;BME280;4897;43.570;27.832;2022-10-16T02:33:37;99944.34;;;6.90;100.00
9717;BME280;4897;43.570;27.832;2022-10-16T02:36:07;99915.00;;;6.92;100.00
9717;BME280;4897;43.570;27.832;2022-10-16T02:38:34;99904.78;;;6.84;100.00
9717;BME280;4897;43.570;27.832;2022-10-16T02:41:02;99912.06;;;6.96;100.00
9717;BME280;4897;43.570;27.832;2022-10-16T02:43:29;99918.53;;;6.92;100.00
9717;BME280;4897;43.570;27.832;2022-10-16T02:45:56;99906.69;;;6.82;100.00
9717;BME280;4897;43.570;27.832;2022-10-16T02:48:24;99913.81;;;6.82;100.00
9717;BME280;4897;43.570;27.832;2022-10-16T02:50:51;99906.09;;;6.77;100.00
9717;BME280;4897;43.570;27.832;2022-10-16T02:53:18;99913.56;;;6.71;100.00
9717;BME280;4897;43.570;27.832;2022-10-16T02:55:45;99915.00;;;6.76;100.00
9717;BME280;4897;43.570;27.832;2022-10-16T02:58:12;99911.41;;;6.77;100.00
9717;BME280;4897;43.570;27.832;2022-10-16T03:00:39;99904.94;;;6.67;100.00
9717;BME280;4897;43.570;27.832;2022-10-16T03:03:06;99915.38;;;6.70;100.00
9717;BME280;4897;43.570;27.832;2022-10-16T03:05:34;99918.78;;;6.72;100.00
9717;BME280;4897;43.570;27.832;2022-10-16T03:08:01;99898.06;;;6.63;100.00
9717;BME280;4897;43.570;27.832;2022-10-16T03:10:28;99920.41;;;6.75;100.00
9717;BME280;4897;43.570;27.832;2022-10-16T03:12:54;99888.66;;;6.42;100.00
9717;BME280;4897;43.570;27.832;2022-10-16T03:15:21;99919.34;;;6.63;100.00
9717;BME280;4897;43.570;27.832;2022-10-16T03:17:48;99920.72;;;6.55;100.00
9717;BME280;4897;43.570;27.832;2022-10-16T03:20:15;99902.47;;;6.49;100.00
9717;BME280;4897;43.570;27.832;2022-10-16T03:22:43;99903.81;;;6.40;100.00
9717;BME280;4897;43.570;27.832;2022-10-16T03:25:10;99920.59;;;6.40;100.00
9717;BME280;4897;43.570;27.832;2022-10-16T03:27:37;99930.53;;;6.37;100.00
9717;BME280;4897;43.570;27.832;2022-10-16T03:30:05;99926.06;;;6.22;100.00
9717;BME280;4897;43.570;27.832;2022-10-16T03:32:32;99923.59;;;6.19;100.00
9717;BME280;4897;43.570;27.832;2022-10-16T03:34:59;99922.66;;;6.20;100.00
9717;BME280;4897;43.570;27.832;2022-10-16T03:37:26;99920.19;;;6.17;100.00
9717;BME280;4897;43.570;27.832;2022-10-16T03:39:54;99922.66;;;6.20;100.00
9717;BME280;4897;43.570;27.832;2022-10-16T03:42:21;99908.50;;;6.04;100.00
9717;BME280;4897;43.570;27.832;2022-10-16T03:44:48;99928.91;;;6.19;100.00
9717;BME280;4897;43.570;27.832;2022-10-16T03:47:15;99923.75;;;6.16;100.00
9717;BME280;4897;43.570;27.832;2022-10-16T03:49:46;99936.16;;;6.15;100.00
9717;BME280;4897;43.570;27.832;2022-10-16T03:52:12;99914.69;;;6.04;100.00
9717;BME280;4897;43.570;27.832;2022-10-16T03:54:39;99932.34;;;6.21;100.00
9717;BME280;4897;43.570;27.832;2022-10-16T03:57:07;99941.66;;;6.12;100.00
9717;BME280;4897;43.570;27.832;2022-10-16T03:59:34;99944.59;;;6.23;100.00
9717;BME280;4897;43.570;27.832;2022-10-16T04:02:01;99939.63;;;6.17;100.00
9717;BME280;4897;43.570;27.832;2022-10-16T04:04:28;99904.22;;;6.01;100.00
9717;BME280;4897;43.570;27.832;2022-10-16T04:06:55;99944.94;;;6.17;100.00
9717;BME280;4897;43.570;27.832;2022-10-16T04:09:22;99935.66;;;6.09;100.00
9717;BME280;4897;43.570;27.832;2022-10-16T04:11:48;99954.06;;;6.12;100.00
9717;BME280;4897;43.570;27.832;2022-10-16T04:14:17;99952.94;;;6.00;100.00
9717;BME280;4897;43.570;27.832;2022-10-16T04:16:44;99945.22;;;5.96;100.00
9717;BME280;4897;43.570;27.832;2022-10-16T04:19:11;99942.56;;;5.96;100.00
9717;BME280;4897;43.570;27.832;2022-10-16T04:21:38;99925.44;;;5.86;100.00
9717;BME280;4897;43.570;27.832;2022-10-16T04:24:05;99955.84;;;5.96;100.00
9717;BME280;4897;43.570;27.832;2022-10-16T04:26:32;99946.00;;;5.98;100.00
9717;BME280;4897;43.570;27.832;2022-10-16T04:28:59;99943.69;;;5.92;100.00
9717;BME280;4897;43.570;27.832;2022-10-16T04:31:28;99934.91;;;6.07;100.00
9717;BME280;4897;43.570;27.832;2022-10-16T04:33:54;99919.25;;;5.85;100.00
9717;BME280;4897;43.570;27.832;2022-10-16T04:36:21;99947.97;;;5.94;100.00
9717;BME280;4897;43.570;27.832;2022-10-16T04:38:48;99916.81;;;5.81;100.00
9717;BME280;4897;43.570;27.832;2022-10-16T04:41:15;99951.13;;;6.01;100.00
9717;BME280;4897;43.570;27.832;2022-10-16T04:43:42;99952.63;;;6.06;100.00
9717;BME280;4897;43.570;27.832;2022-10-16T04:46:09;99954.06;;;6.12;100.00
9717;BME280;4897;43.570;27.832;2022-10-16T04:48:37;99960.78;;;6.19;100.00
9717;BME280;4897;43.570;27.832;2022-10-16T04:51:04;99949.28;;;6.18;100.00
9717;BME280;4897;43.570;27.832;2022-10-16T04:53:31;99956.69;;;6.29;100.00
9717;BME280;4897;43.570;27.832;2022-10-16T04:55:58;99957.88;;;6.39;100.00
9717;BME280;4897;43.570;27.832;2022-10-16T04:58:25;99964.91;;;6.56;100.00
9717;BME280;4897;43.570;27.832;2022-10-16T05:00:53;99946.94;;;6.61;100.00
9717;BME280;4897;43.570;27.832;2022-10-16T05:03:20;99959.63;;;6.71;100.00
9717;BME280;4897;43.570;27.832;2022-10-16T05:05:48;99958.50;;;6.75;100.00
9717;BME280;4897;43.570;27.832;2022-10-16T05:08:16;99928.06;;;6.50;100.00
9717;BME280;4897;43.570;27.832;2022-10-16T05:10:44;99965.94;;;6.69;100.00
9717;BME280;4897;43.570;27.832;2022-10-16T05:13:11;99968.88;;;6.80;100.00
9717;BME280;4897;43.570;27.832;2022-10-16T05:15:38;99915.22;;;6.42;100.00
9717;BME280;4897;43.570;27.832;2022-10-16T05:18:05;99975.72;;;6.84;100.00
9717;BME280;4897;43.570;27.832;2022-10-16T05:20:32;99981.22;;;6.96;100.00
9717;BME280;4897;43.570;27.832;2022-10-16T05:23:00;99985.31;;;7.02;100.00
9717;BME280;4897;43.570;27.832;2022-10-16T05:25:27;99991.50;;;7.02;100.00
9717;BME280;4897;43.570;27.832;2022-10-16T05:27:54;99993.31;;;7.32;100.00
9717;BME280;4897;43.570;27.832;2022-10-16T05:30:21;99995.53;;;7.39;100.00
9717;BME280;4897;43.570;27.832;2022-10-16T05:32:48;99996.50;;;7.38;100.00
9717;BME280;4897;43.570;27.832;2022-10-16T05:35:16;99999.34;;;7.49;100.00
9717;BME280;4897;43.570;27.832;2022-10-16T05:37:43;99998.19;;;7.69;100.00
9717;BME280;4897;43.570;27.832;2022-10-16T05:40:11;99998.94;;;7.71;100.00
9717;BME280;4897;43.570;27.832;2022-10-16T05:42:38;100000.22;;;7.93;100.00
9717;BME280;4897;43.570;27.832;2022-10-16T05:45:06;99983.84;;;7.85;100.00
9717;BME280;4897;43.570;27.832;2022-10-16T05:47:35;100003.19;;;8.17;100.00
9717;BME280;4897;43.570;27.832;2022-10-16T05:50:03;100012.72;;;8.21;100.00
9717;BME280;4897;43.570;27.832;2022-10-16T05:52:30;100000.13;;;7.95;100.00
9717;BME280;4897;43.570;27.832;2022-10-16T05:54:57;100006.41;;;8.08;100.00
9717;BME280;4897;43.570;27.832;2022-10-16T05:57:25;100014.28;;;8.25;100.00
9717;BME280;4897;43.570;27.832;2022-10-16T05:59:52;100014.47;;;8.50;100.00
9717;BME280;4897;43.570;27.832;2022-10-16T06:02:19;100020.66;;;8.51;100.00
9717;BME280;4897;43.570;27.832;2022-10-16T06:04:46;100028.72;;;8.49;100.00
9717;BME280;4897;43.570;27.832;2022-10-16T06:07:13;100019.22;;;8.59;100.00
9717;BME280;4897;43.570;27.832;2022-10-16T06:09:40;100024.53;;;8.73;100.00
9717;BME280;4897;43.570;27.832;2022-10-16T06:12:07;100019.56;;;8.81;100.00
9717;BME280;4897;43.570;27.832;2022-10-16T06:14:35;100022.47;;;8.91;100.00
9717;BME280;4897;43.570;27.832;2022-10-16T06:17:02;100025.91;;;8.93;100.00
9717;BME280;4897;43.570;27.832;2022-10-16T06:19:29;100022.00;;;8.99;100.00
9717;BME280;4897;43.570;27.832;2022-10-16T06:21:57;100016.69;;;8.99;100.00
9717;BME280;4897;43.570;27.832;2022-10-16T06:24:24;100026.94;;;9.05;100.00
9717;BME280;4897;43.570;27.832;2022-10-16T06:26:51;100039.47;;;9.17;100.00
9717;BME280;4897;43.570;27.832;2022-10-16T06:29:18;100037.63;;;9.31;100.00
9717;BME280;4897;43.570;27.832;2022-10-16T06:31:46;100022.25;;;9.35;100.00
9717;BME280;4897;43.570;27.832;2022-10-16T06:34:13;100044.75;;;9.57;100.00
9717;BME280;4897;43.570;27.832;2022-10-16T06:36:40;100046.94;;;9.65;100.00
9717;BME280;4897;43.570;27.832;2022-10-16T06:39:11;100043.22;;;9.80;100.00
9717;BME280;4897;43.570;27.832;2022-10-16T06:41:38;100051.56;;;9.88;100.00
9717;BME280;4897;43.570;27.832;2022-10-16T06:44:05;100025.16;;;9.71;100.00
9717;BME280;4897;43.570;27.832;2022-10-16T06:46:33;100051.72;;;10.12;100.00
9717;BME280;4897;43.570;27.832;2022-10-16T06:49:01;100035.63;;;10.13;100.00
9717;BME280;4897;43.570;27.832;2022-10-16T06:51:28;100048.25;;;10.36;100.00
9717;BME280;4897;43.570;27.832;2022-10-16T06:53:57;100043.53;;;10.53;100.00
9717;BME280;4897;43.570;27.832;2022-10-16T06:56:25;100055.44;;;10.85;100.00
9717;BME280;4897;43.570;27.832;2022-10-16T06:58:53;100053.41;;;11.24;100.00
9717;BME280;4897;43.570;27.832;2022-10-16T07:01:22;100055.63;;;11.67;100.00
9717;BME280;4897;43.570;27.832;2022-10-16T07:03:49;100051.19;;;11.89;100.00
9717;BME280;4897;43.570;27.832;2022-10-16T07:06:20;100056.13;;;12.07;100.00
9717;BME280;4897;43.570;27.832;2022-10-16T07:08:47;100057.50;;;12.23;100.00
9717;BME280;4897;43.570;27.832;2022-10-16T07:11:16;100049.75;;;12.42;100.00
9717;BME280;4897;43.570;27.832;2022-10-16T07:13:44;100050.88;;;12.62;100.00
9717;BME280;4897;43.570;27.832;2022-10-16T07:16:13;100054.41;;;12.73;100.00
9717;BME280;4897;43.570;27.832;2022-10-16T07:18:40;100058.19;;;12.82;100.00
9717;BME280;4897;43.570;27.832;2022-10-16T07:21:10;100059.78;;;12.84;100.00
9717;BME280;4897;43.570;27.832;2022-10-16T07:23:38;100046.72;;;12.80;100.00
9717;BME280;4897;43.570;27.832;2022-10-16T07:26:06;100066.72;;;12.98;100.00
9717;BME280;4897;43.570;27.832;2022-10-16T07:28:34;100052.47;;;13.09;100.00
9717;BME280;4897;43.570;27.832;2022-10-16T07:31:01;100060.66;;;13.18;100.00
9717;BME280;4897;43.570;27.832;2022-10-16T07:33:30;100053.56;;;13.17;100.00
9717;BME280;4897;43.570;27.832;2022-10-16T07:35:57;100056.22;;;13.28;100.00
9717;BME280;4897;43.570;27.832;2022-10-16T07:38:24;100056.22;;;13.28;100.00
9717;BME280;4897;43.570;27.832;2022-10-16T07:41:00;100056.06;;;13.41;100.00
9717;BME280;4897;43.570;27.832;2022-10-16T07:43:28;100050.31;;;13.45;100.00
9717;BME280;4897;43.570;27.832;2022-10-16T07:45:55;99942.50;;;12.96;100.00
9717;BME280;4897;43.570;27.832;2022-10-16T07:48:26;99989.34;;;13.46;100.00
9717;BME280;4897;43.570;27.832;2022-10-16T07:50:57;100031.66;;;13.64;100.00
9717;BME280;4897;43.570;27.832;2022-10-16T07:53:24;100038.00;;;13.75;100.00
9717;BME280;4897;43.570;27.832;2022-10-16T07:55:50;100054.53;;;13.91;100.00
9717;BME280;4897;43.570;27.832;2022-10-16T07:58:19;100053.75;;;14.00;100.00
9717;BME280;4897;43.570;27.832;2022-10-16T08:00:46;100049.44;;;14.08;100.00
9717;BME280;4897;43.570;27.832;2022-10-16T08:03:12;100056.41;;;14.31;100.00
9717;BME280;4897;43.570;27.832;2022-10-16T08:05:39;100065.25;;;14.64;100.00
9717;BME280;4897;43.570;27.832;2022-10-16T08:08:06;100036.50;;;14.64;100.00
9717;BME280;4897;43.570;27.832;2022-10-16T08:10:33;100065.31;;;15.13;100.00
9717;BME280;4897;43.570;27.832;2022-10-16T08:13:00;100063.38;;;15.25;100.00
9717;BME280;4897;43.570;27.832;2022-10-16T08:15:28;100067.16;;;15.12;100.00
9717;BME280;4897;43.570;27.832;2022-10-16T08:17:57;100071.13;;;15.08;100.00
9717;BME280;4897;43.570;27.832;2022-10-16T08:20:24;100063.72;;;15.41;100.00
9717;BME280;4897;43.570;27.832;2022-10-16T08:22:51;100069.03;;;16.09;100.00
9717;BME280;4897;43.570;27.832;2022-10-16T08:25:19;100040.81;;;16.78;100.00
9717;BME280;4897;43.570;27.832;2022-10-16T08:27:46;100053.63;;;18.28;98.89
9717;BME280;4897;43.570;27.832;2022-10-16T08:30:13;100052.03;;;20.83;65.96
9717;BME280;4897;43.570;27.832;2022-10-16T08:32:42;100065.28;;;18.98;68.79
9717;BME280;4897;43.570;27.832;2022-10-16T08:35:10;100037.47;;;19.87;64.71
9717;BME280;4897;43.570;27.832;2022-10-16T08:37:37;100041.53;;;21.96;55.36
9717;BME280;4897;43.570;27.832;2022-10-16T08:40:06;100053.34;;;22.49;50.61
9717;BME280;4897;43.570;27.832;2022-10-16T08:42:44;100061.16;;;23.33;47.35
9717;BME280;4897;43.570;27.832;2022-10-16T08:45:32;100051.38;;;22.57;48.64
9717;BME280;4897;43.570;27.832;2022-10-16T08:48:11;100047.31;;;23.49;46.06
9717;BME280;4897;43.570;27.832;2022-10-16T08:50:41;100036.84;;;22.27;48.13
9717;BME280;4897;43.570;27.832;2022-10-16T08:53:15;100043.53;;;23.50;45.77
9717;BME280;4897;43.570;27.832;2022-10-16T08:55:46;100053.28;;;20.56;51.64
9717;BME280;4897;43.570;27.832;2022-10-16T08:58:17;100066.06;;;19.58;59.15
9717;BME280;4897;43.570;27.832;2022-10-16T09:00:47;100059.38;;;20.02;58.45
9717;BME280;4897;43.570;27.832;2022-10-16T09:03:35;100060.16;;;19.62;58.91
9717;BME280;4897;43.570;27.832;2022-10-16T09:09:02;100102.59;;;23.36;46.69
9717;BME280;4897;43.570;27.832;2022-10-16T09:11:41;100066.78;;;23.96;44.71
9717;BME280;4897;43.570;27.832;2022-10-16T09:14:23;100055.97;;;25.88;41.05
9717;BME280;4897;43.570;27.832;2022-10-16T09:17:13;100054.59;;;25.58;39.08
9717;BME280;4897;43.570;27.832;2022-10-16T09:19:50;100065.13;;;24.86;40.58
9717;BME280;4897;43.570;27.832;2022-10-16T09:22:21;100066.63;;;23.83;42.41
9717;BME280;4897;43.570;27.832;2022-10-16T09:24:51;100050.00;;;24.20;42.45
9717;BME280;4897;43.570;27.832;2022-10-16T09:27:18;100055.53;;;25.03;40.87
9717;BME280;4897;43.570;27.832;2022-10-16T09:29:45;100049.97;;;24.63;40.13
9717;BME280;4897;43.570;27.832;2022-10-16T09:32:14;100057.38;;;24.69;40.56
9717;BME280;4897;43.570;27.832;2022-10-16T09:34:47;100009.22;;;26.16;38.55
9717;BME280;4897;43.570;27.832;2022-10-16T09:37:18;100018.94;;;26.97;36.75
9717;BME280;4897;43.570;27.832;2022-10-16T09:39:45;100030.75;;;26.65;36.83
9717;BME280;4897;43.570;27.832;2022-10-16T09:42:15;100036.16;;;27.30;36.66
9717;BME280;4897;43.570;27.832;2022-10-16T09:44:42;100036.47;;;27.60;35.40
9717;BME280;4897;43.570;27.832;2022-10-16T09:47:15;100041.25;;;27.78;35.21
9717;BME280;4897;43.570;27.832;2022-10-16T09:49:52;100037.22;;;27.36;35.29
9717;BME280;4897;43.570;27.832;2022-10-16T09:52:21;100015.66;;;28.15;34.36
9717;BME280;4897;43.570;27.832;2022-10-16T09:54:49;100018.38;;;27.33;34.88
9717;BME280;4897;43.570;27.832;2022-10-16T09:57:16;100034.06;;;27.19;35.28
9717;BME280;4897;43.570;27.832;2022-10-16T09:59:46;100037.50;;;28.10;34.32
9717;BME280;4897;43.570;27.832;2022-10-16T10:02:14;100019.91;;;28.91;33.76
9717;BME280;4897;43.570;27.832;2022-10-16T10:04:48;100027.91;;;30.13;32.03
9717;BME280;4897;43.570;27.832;2022-10-16T10:07:23;100025.81;;;30.27;30.98
9717;BME280;4897;43.570;27.832;2022-10-16T10:09:51;100046.59;;;29.52;31.69
9717;BME280;4897;43.570;27.832;2022-10-16T10:12:20;100032.81;;;27.73;33.19
9717;BME280;4897;43.570;27.832;2022-10-16T10:14:49;100051.63;;;27.76;33.30
9717;BME280;4897;43.570;27.832;2022-10-16T10:17:18;100037.78;;;29.00;32.06
9717;BME280;4897;43.570;27.832;2022-10-16T10:19:52;100018.22;;;29.63;31.22
9717;BME280;4897;43.570;27.832;2022-10-16T10:22:24;100029.09;;;30.35;30.77
9717;BME280;4897;43.570;27.832;2022-10-16T10:25:15;100021.06;;;28.53;31.71
9717;BME280;4897;43.570;27.832;2022-10-16T10:27:50;100040.53;;;27.95;32.29
9717;BME280;4897;43.570;27.832;2022-10-16T10:30:22;99994.59;;;27.96;32.36
9717;BME280;4897;43.570;27.832;2022-10-16T10:33:00;100022.34;;;28.99;32.06
9717;BME280;4897;43.570;27.832;2022-10-16T10:35:36;100022.50;;;28.86;31.58
9717;BME280;4897;43.570;27.832;2022-10-16T10:38:20;100025.38;;;28.17;32.21
9717;BME280;4897;43.570;27.832;2022-10-16T10:41:01;100020.41;;;27.63;33.27
9717;BME280;4897;43.570;27.832;2022-10-16T10:43:44;100012.56;;;28.05;31.66
9717;BME280;4897;43.570;27.832;2022-10-16T10:46:22;100004.19;;;29.35;30.80
9717;BME280;4897;43.570;27.832;2022-10-16T10:49:08;100019.34;;;27.01;33.34
9717;BME280;4897;43.570;27.832;2022-10-16T10:51:43;100008.75;;;28.06;32.03
9717;BME280;4897;43.570;27.832;2022-10-16T10:54:22;100006.03;;;28.30;31.58
9717;BME280;4897;43.570;27.832;2022-10-16T10:56:57;100022.31;;;28.01;32.20
9717;BME280;4897;43.570;27.832;2022-10-16T10:59:40;100004.13;;;28.98;31.52
9717;BME280;4897;43.570;27.832;2022-10-16T11:02:18;99919.28;;;28.28;31.78
9717;BME280;4897;43.570;27.832;2022-10-16T11:05:27;99991.75;;;29.07;30.70
9717;BME280;4897;43.570;27.832;2022-10-16T11:07:59;100016.25;;;27.41;32.09
9717;BME280;4897;43.570;27.832;2022-10-16T11:10:31;100008.81;;;26.91;33.39
9717;BME280;4897;43.570;27.832;2022-10-16T11:13:08;100020.19;;;28.03;32.17
9717;BME280;4897;43.570;27.832;2022-10-16T11:15:39;100026.47;;;27.79;32.34
9717;BME280;4897;43.570;27.832;2022-10-16T11:18:11;100018.25;;;28.10;32.41
9717;BME280;4897;43.570;27.832;2022-10-16T11:20:42;100012.56;;;27.67;32.39
9717;BME280;4897;43.570;27.832;2022-10-16T11:23:16;100009.56;;;28.37;31.67
9717;BME280;4897;43.570;27.832;2022-10-16T11:25:47;100003.28;;;28.30;31.25
9717;BME280;4897;43.570;27.832;2022-10-16T11:28:18;99999.78;;;28.17;31.76
9717;BME280;4897;43.570;27.832;2022-10-16T11:30:49;99997.16;;;28.28;30.99
9717;BME280;4897;43.570;27.832;2022-10-16T11:33:26;99999.78;;;28.17;31.41
9717;BME280;4897;43.570;27.832;2022-10-16T11:36:01;100010.13;;;28.21;30.77
9717;BME280;4897;43.570;27.832;2022-10-16T11:38:32;100006.81;;;28.37;30.91
9717;BME280;4897;43.570;27.832;2022-10-16T11:41:15;100003.38;;;27.80;31.55
9717;BME280;4897;43.570;27.832;2022-10-16T11:43:51;100010.09;;;27.97;31.93
9717;BME280;4897;43.570;27.832;2022-10-16T11:46:21;100000.53;;;28.80;30.76
9717;BME280;4897;43.570;27.832;2022-10-16T11:48:55;100004.72;;;28.64;31.21
9717;BME280;4897;43.570;27.832;2022-10-16T11:51:31;100012.59;;;26.90;31.89
9717;BME280;4897;43.570;27.832;2022-10-16T11:54:08;100007.53;;;26.61;33.48
9717;BME280;4897;43.570;27.832;2022-10-16T11:56:43;100015.94;;;26.00;34.01
9717;BME280;4897;43.570;27.832;2022-10-16T11:59:17;99994.66;;;26.81;33.09
9717;BME280;4897;43.570;27.832;2022-10-16T12:01:50;100003.94;;;27.57;31.93
9717;BME280;4897;43.570;27.832;2022-10-16T12:04:24;100007.34;;;27.52;31.90
9717;BME280;4897;43.570;27.832;2022-10-16T12:06:58;100013.88;;;26.74;33.19
9717;BME280;4897;43.570;27.832;2022-10-16T12:09:31;100009.59;;;28.06;31.50
9717;BME280;4897;43.570;27.832;2022-10-16T12:12:00;100006.59;;;27.26;32.07
9717;BME280;4897;43.570;27.832;2022-10-16T12:14:36;100013.03;;;27.57;31.39
9717;BME280;4897;43.570;27.832;2022-10-16T12:17:21;100001.44;;;28.49;30.52
9717;BME280;4897;43.570;27.832;2022-10-16T12:19:57;100016.19;;;29.22;29.26
9717;BME280;4897;43.570;27.832;2022-10-16T12:22:27;100022.69;;;29.46;28.94
9717;BME280;4897;43.570;27.832;2022-10-16T12:24:54;100021.09;;;29.38;28.83
9717;BME280;4897;43.570;27.832;2022-10-16T12:27:25;100001.75;;;29.27;29.01
9717;BME280;4897;43.570;27.832;2022-10-16T12:29:56;99984.81;;;28.62;29.32
9717;BME280;4897;43.570;27.832;2022-10-16T12:32:29;100021.44;;;29.05;29.49
9717;BME280;4897;43.570;27.832;2022-10-16T12:34:57;100022.50;;;28.86;29.95
9717;BME280;4897;43.570;27.832;2022-10-16T12:37:26;100024.75;;;28.71;29.55
9717;BME280;4897;43.570;27.832;2022-10-16T12:39:55;100010.44;;;29.23;29.43
9717;BME280;4897;43.570;27.832;2022-10-16T12:42:32;100009.00;;;28.29;30.41
9717;BME280;4897;43.570;27.832;2022-10-16T12:45:00;100022.06;;;27.64;30.27
9717;BME280;4897;43.570;27.832;2022-10-16T12:47:38;100026.09;;;28.87;30.22
9717;BME280;4897;43.570;27.832;2022-10-16T12:50:26;100022.88;;;29.62;29.30
9717;BME280;4897;43.570;27.832;2022-10-16T12:52:53;100030.03;;;29.15;29.56
9717;BME280;4897;43.570;27.832;2022-10-16T12:55:21;100029.13;;;29.40;28.68
9717;BME280;4897;43.570;27.832;2022-10-16T12:58:09;100035.25;;;29.60;28.76
9717;BME280;4897;43.570;27.832;2022-10-16T13:00:44;100035.72;;;29.20;29.14
9717;BME280;4897;43.570;27.832;2022-10-16T13:03:30;100032.56;;;29.17;28.53
9717;BME280;4897;43.570;27.832;2022-10-16T13:06:11;100035.50;;;28.48;29.39
9717;BME280;4897;43.570;27.832;2022-10-16T13:09:00;100038.16;;;28.86;29.36
9717;BME280;4897;43.570;27.832;2022-10-16T13:11:44;100049.78;;;28.07;29.86
9717;BME280;4897;43.570;27.832;2022-10-16T13:14:24;100049.81;;;27.94;29.84
9717;BME280;4897;43.570;27.832;2022-10-16T13:17:03;100046.78;;;27.01;30.92
9717;BME280;4897;43.570;27.832;2022-10-16T13:19:38;100052.56;;;27.56;30.37
9717;BME280;4897;43.570;27.832;2022-10-16T13:22:17;100014.28;;;26.58;31.35
9717;BME280;4897;43.570;27.832;2022-10-16T13:25:01;100041.28;;;27.07;31.51